sensor_id;sensor_type;location;lat;lon;timestamp;temperature;humidity
32524;DHT22;18965;52.242;20.886;2023-09-12T00:00:08;19.50;77.50
32524;DHT22;18965;52.242;20.886;2023-09-12T00:02:34;19.50;77.70
32524;DHT22;18965;52.242;20.886;2023-09-12T00:04:59;19.50;77.80
32524;DHT22;18965;52.242;20.886;2023-09-12T00:07:25;19.40;77.90
32524;DHT22;18965;52.242;20.886;2023-09-12T00:09:51;19.40;77.90
32524;DHT22;18965;52.242;20.886;2023-09-12T00:12:17;19.30;77.90
32524;DHT22;18965;52.242;20.886;2023-09-12T00:14:42;19.30;78.10
32524;DHT22;18965;52.242;20.886;2023-09-12T00:17:09;19.30;78.20
32524;DHT22;18965;52.242;20.886;2023-09-12T00:19:34;19.30;78.30
32524;DHT22;18965;52.242;20.886;2023-09-12T00:22:00;19.30;78.30
32524;DHT22;18965;52.242;20.886;2023-09-12T00:24:26;19.20;78.30
32524;DHT22;18965;52.242;20.886;2023-09-12T00:26:52;19.20;78.40
32524;DHT22;18965;52.242;20.886;2023-09-12T00:29:17;19.20;78.50
32524;DHT22;18965;52.242;20.886;2023-09-12T00:31:43;19.20;79.40
32524;DHT22;18965;52.242;20.886;2023-09-12T00:34:09;19.20;78.70
32524;DHT22;18965;52.242;20.886;2023-09-12T00:36:34;19.20;78.70
32524;DHT22;18965;52.242;20.886;2023-09-12T00:39:02;19.10;78.70
32524;DHT22;18965;52.242;20.886;2023-09-12T00:41:28;19.10;78.80
32524;DHT22;18965;52.242;20.886;2023-09-12T00:43:53;19.20;78.80
32524;DHT22;18965;52.242;20.886;2023-09-12T00:46:20;19.10;78.80
32524;DHT22;18965;52.242;20.886;2023-09-12T00:48:48;19.20;78.90
32524;DHT22;18965;52.242;20.886;2023-09-12T00:51:15;19.10;78.80
32524;DHT22;18965;52.242;20.886;2023-09-12T00:53:43;19.10;78.90
32524;DHT22;18965;52.242;20.886;2023-09-12T00:56:09;19.10;79.00
32524;DHT22;18965;52.242;20.886;2023-09-12T00:58:35;19.10;79.00
32524;DHT22;18965;52.242;20.886;2023-09-12T01:01:01;19.00;79.10
32524;DHT22;18965;52.242;20.886;2023-09-12T01:03:27;19.00;79.10
32524;DHT22;18965;52.242;20.886;2023-09-12T01:05:53;19.00;79.20
32524;DHT22;18965;52.242;20.886;2023-09-12T01:08:19;19.00;79.20
32524;DHT22;18965;52.242;20.886;2023-09-12T01:10:47;19.10;79.30
32524;DHT22;18965;52.242;20.886;2023-09-12T01:13:14;19.00;79.40
32524;DHT22;18965;52.242;20.886;2023-09-12T01:15:41;19.00;79.40
32524;DHT22;18965;52.242;20.886;2023-09-12T01:18:07;19.00;79.40
32524;DHT22;18965;52.242;20.886;2023-09-12T01:20:34;19.00;79.50
32524;DHT22;18965;52.242;20.886;2023-09-12T01:26:01;19.00;79.40
32524;DHT22;18965;52.242;20.886;2023-09-12T01:28:29;19.00;79.50
32524;DHT22;18965;52.242;20.886;2023-09-12T01:30:58;19.00;79.30
32524;DHT22;18965;52.242;20.886;2023-09-12T01:33:26;19.00;79.20
32524;DHT22;18965;52.242;20.886;2023-09-12T01:35:51;19.00;79.20
32524;DHT22;18965;52.242;20.886;2023-09-12T01:38:17;18.90;79.20
32524;DHT22;18965;52.242;20.886;2023-09-12T01:40:46;18.90;79.20
32524;DHT22;18965;52.242;20.886;2023-09-12T01:43:15;18.90;79.20
32524;DHT22;18965;52.242;20.886;2023-09-12T01:45:42;18.90;79.30
32524;DHT22;18965;52.242;20.886;2023-09-12T01:48:08;18.90;79.30
32524;DHT22;18965;52.242;20.886;2023-09-12T01:50:34;18.90;79.30
32524;DHT22;18965;52.242;20.886;2023-09-12T01:53:01;18.90;79.40
32524;DHT22;18965;52.242;20.886;2023-09-12T01:55:27;18.80;79.40
32524;DHT22;18965;52.242;20.886;2023-09-12T01:57:53;18.80;79.40
32524;DHT22;18965;52.242;20.886;2023-09-12T02:00:19;18.80;79.40
32524;DHT22;18965;52.242;20.886;2023-09-12T02:02:45;18.80;79.50
32524;DHT22;18965;52.242;20.886;2023-09-12T02:07:44;18.80;79.70
32524;DHT22;18965;52.242;20.886;2023-09-12T02:10:10;18.70;79.60
32524;DHT22;18965;52.242;20.886;2023-09-12T02:12:36;18.70;79.60
32524;DHT22;18965;52.242;20.886;2023-09-12T02:15:02;18.70;79.60
32524;DHT22;18965;52.242;20.886;2023-09-12T02:17:27;18.70;80.40
32524;DHT22;18965;52.242;20.886;2023-09-12T02:19:53;18.70;79.70
32524;DHT22;18965;52.242;20.886;2023-09-12T02:22:19;18.70;79.80
32524;DHT22;18965;52.242;20.886;2023-09-12T02:24:45;18.60;79.80
32524;DHT22;18965;52.242;20.886;2023-09-12T02:27:10;18.60;79.80
32524;DHT22;18965;52.242;20.886;2023-09-12T02:29:41;18.60;79.80
32524;DHT22;18965;52.242;20.886;2023-09-12T02:32:07;18.50;79.90
32524;DHT22;18965;52.242;20.886;2023-09-12T02:34:33;18.50;79.90
32524;DHT22;18965;52.242;20.886;2023-09-12T02:36:59;18.50;80.00
32524;DHT22;18965;52.242;20.886;2023-09-12T02:39:25;18.50;80.80
32524;DHT22;18965;52.242;20.886;2023-09-12T02:41:51;18.40;80.00
32524;DHT22;18965;52.242;20.886;2023-09-12T02:44:16;18.40;80.20
32524;DHT22;18965;52.242;20.886;2023-09-12T02:46:42;18.40;80.20
32524;DHT22;18965;52.242;20.886;2023-09-12T02:49:08;18.40;80.20
32524;DHT22;18965;52.242;20.886;2023-09-12T02:51:33;18.40;80.20
32524;DHT22;18965;52.242;20.886;2023-09-12T02:53:59;18.30;80.30
32524;DHT22;18965;52.242;20.886;2023-09-12T02:56:25;18.30;80.40
32524;DHT22;18965;52.242;20.886;2023-09-12T02:58:51;18.30;80.40
32524;DHT22;18965;52.242;20.886;2023-09-12T03:01:17;18.30;80.50
32524;DHT22;18965;52.242;20.886;2023-09-12T03:03:46;18.30;80.50
32524;DHT22;18965;52.242;20.886;2023-09-12T03:06:13;18.30;80.70
32524;DHT22;18965;52.242;20.886;2023-09-12T03:08:40;18.20;80.70
32524;DHT22;18965;52.242;20.886;2023-09-12T03:11:06;18.20;80.80
32524;DHT22;18965;52.242;20.886;2023-09-12T03:13:33;18.30;80.90
32524;DHT22;18965;52.242;20.886;2023-09-12T03:16:00;18.20;80.80
32524;DHT22;18965;52.242;20.886;2023-09-12T03:18:25;18.20;80.80
32524;DHT22;18965;52.242;20.886;2023-09-12T03:20:51;18.20;80.70
32524;DHT22;18965;52.242;20.886;2023-09-12T03:23:18;18.20;80.70
32524;DHT22;18965;52.242;20.886;2023-09-12T03:25:44;18.20;80.80
32524;DHT22;18965;52.242;20.886;2023-09-12T03:28:10;18.20;80.80
32524;DHT22;18965;52.242;20.886;2023-09-12T03:30:37;18.20;80.80
32524;DHT22;18965;52.242;20.886;2023-09-12T03:33:03;18.20;80.90
32524;DHT22;18965;52.242;20.886;2023-09-12T03:35:30;18.10;80.90
32524;DHT22;18965;52.242;20.886;2023-09-12T03:37:56;18.10;80.90
32524;DHT22;18965;52.242;20.886;2023-09-12T03:40:22;18.10;80.90
32524;DHT22;18965;52.242;20.886;2023-09-12T03:42:47;18.10;81.00
32524;DHT22;18965;52.242;20.886;2023-09-12T03:45:13;18.10;81.00
32524;DHT22;18965;52.242;20.886;2023-09-12T03:47:39;18.10;81.10
32524;DHT22;18965;52.242;20.886;2023-09-12T03:50:05;18.00;81.10
32524;DHT22;18965;52.242;20.886;2023-09-12T03:52:31;18.00;81.10
32524;DHT22;18965;52.242;20.886;2023-09-12T03:54:56;18.00;81.10
32524;DHT22;18965;52.242;20.886;2023-09-12T03:57:22;18.00;81.10
32524;DHT22;18965;52.242;20.886;2023-09-12T03:59:48;17.90;81.10
32524;DHT22;18965;52.242;20.886;2023-09-12T04:02:13;17.90;81.20
32524;DHT22;18965;52.242;20.886;2023-09-12T04:04:39;17.90;81.30
32524;DHT22;18965;52.242;20.886;2023-09-12T04:07:05;17.90;81.30
32524;DHT22;18965;52.242;20.886;2023-09-12T04:09:31;17.90;81.40
32524;DHT22;18965;52.242;20.886;2023-09-12T04:11:57;17.90;81.50
32524;DHT22;18965;52.242;20.886;2023-09-12T04:14:22;17.90;81.40
32524;DHT22;18965;52.242;20.886;2023-09-12T04:16:48;17.90;81.40
32524;DHT22;18965;52.242;20.886;2023-09-12T04:19:14;17.80;81.50
32524;DHT22;18965;52.242;20.886;2023-09-12T04:21:40;17.80;81.50
32524;DHT22;18965;52.242;20.886;2023-09-12T04:24:06;17.80;81.50
32524;DHT22;18965;52.242;20.886;2023-09-12T04:26:32;17.90;81.70
32524;DHT22;18965;52.242;20.886;2023-09-12T04:28:58;17.90;81.70
32524;DHT22;18965;52.242;20.886;2023-09-12T04:31:24;17.80;81.70
32524;DHT22;18965;52.242;20.886;2023-09-12T04:33:53;17.90;81.90
32524;DHT22;18965;52.242;20.886;2023-09-12T04:36:20;17.90;81.80
32524;DHT22;18965;52.242;20.886;2023-09-12T04:38:46;17.90;81.80
32524;DHT22;18965;52.242;20.886;2023-09-12T04:41:12;17.90;81.90
32524;DHT22;18965;52.242;20.886;2023-09-12T04:43:45;17.90;81.90
32524;DHT22;18965;52.242;20.886;2023-09-12T04:46:11;17.90;81.90
32524;DHT22;18965;52.242;20.886;2023-09-12T04:48:37;18.00;82.10
32524;DHT22;18965;52.242;20.886;2023-09-12T04:51:03;18.00;82.10
32524;DHT22;18965;52.242;20.886;2023-09-12T04:53:29;18.00;82.10
32524;DHT22;18965;52.242;20.886;2023-09-12T04:56:00;18.10;82.10
32524;DHT22;18965;52.242;20.886;2023-09-12T04:58:26;18.10;82.00
32524;DHT22;18965;52.242;20.886;2023-09-12T05:00:53;18.10;82.00
32524;DHT22;18965;52.242;20.886;2023-09-12T05:03:19;18.20;82.40
32524;DHT22;18965;52.242;20.886;2023-09-12T05:05:49;18.40;82.30
32524;DHT22;18965;52.242;20.886;2023-09-12T05:08:15;18.40;81.90
32524;DHT22;18965;52.242;20.886;2023-09-12T05:10:43;18.50;81.80
32524;DHT22;18965;52.242;20.886;2023-09-12T05:13:09;18.60;81.60
32524;DHT22;18965;52.242;20.886;2023-09-12T05:15:34;18.70;81.50
32524;DHT22;18965;52.242;20.886;2023-09-12T05:18:02;18.70;81.40
32524;DHT22;18965;52.242;20.886;2023-09-12T05:20:28;18.80;81.40
32524;DHT22;18965;52.242;20.886;2023-09-12T05:22:53;18.90;81.50
32524;DHT22;18965;52.242;20.886;2023-09-12T05:25:19;18.90;81.50
32524;DHT22;18965;52.242;20.886;2023-09-12T05:27:45;19.00;81.50
32524;DHT22;18965;52.242;20.886;2023-09-12T05:30:10;19.10;81.50
32524;DHT22;18965;52.242;20.886;2023-09-12T05:32:36;19.10;81.40
32524;DHT22;18965;52.242;20.886;2023-09-12T05:35:02;19.20;81.50
32524;DHT22;18965;52.242;20.886;2023-09-12T05:37:28;19.20;81.50
32524;DHT22;18965;52.242;20.886;2023-09-12T05:39:54;19.30;81.50
32524;DHT22;18965;52.242;20.886;2023-09-12T05:42:20;19.40;81.50
32524;DHT22;18965;52.242;20.886;2023-09-12T05:44:50;19.50;81.50
32524;DHT22;18965;52.242;20.886;2023-09-12T05:47:20;19.60;81.50
32524;DHT22;18965;52.242;20.886;2023-09-12T05:49:46;19.70;81.40
32524;DHT22;18965;52.242;20.886;2023-09-12T05:52:12;19.70;81.40
32524;DHT22;18965;52.242;20.886;2023-09-12T05:54:39;19.80;81.30
32524;DHT22;18965;52.242;20.886;2023-09-12T05:57:06;19.90;81.20
32524;DHT22;18965;52.242;20.886;2023-09-12T05:59:34;19.90;81.10
32524;DHT22;18965;52.242;20.886;2023-09-12T06:01:59;20.00;81.10
32524;DHT22;18965;52.242;20.886;2023-09-12T06:04:25;20.10;81.00
32524;DHT22;18965;52.242;20.886;2023-09-12T06:06:51;20.20;81.00
32524;DHT22;18965;52.242;20.886;2023-09-12T06:09:16;20.30;81.00
32524;DHT22;18965;52.242;20.886;2023-09-12T06:11:42;20.50;80.90
32524;DHT22;18965;52.242;20.886;2023-09-12T06:14:08;20.70;80.90
32524;DHT22;18965;52.242;20.886;2023-09-12T06:16:33;20.80;80.70
32524;DHT22;18965;52.242;20.886;2023-09-12T06:18:59;21.00;80.60
32524;DHT22;18965;52.242;20.886;2023-09-12T06:21:25;21.10;80.30
32524;DHT22;18965;52.242;20.886;2023-09-12T06:24:13;21.30;80.20
32524;DHT22;18965;52.242;20.886;2023-09-12T06:26:39;21.40;80.00
32524;DHT22;18965;52.242;20.886;2023-09-12T06:29:05;21.70;79.80
32524;DHT22;18965;52.242;20.886;2023-09-12T06:31:32;21.80;79.40
32524;DHT22;18965;52.242;20.886;2023-09-12T06:33:58;22.00;78.90
32524;DHT22;18965;52.242;20.886;2023-09-12T06:36:27;22.20;78.20
32524;DHT22;18965;52.242;20.886;2023-09-12T06:38:58;22.40;77.70
32524;DHT22;18965;52.242;20.886;2023-09-12T06:41:23;22.60;77.30
32524;DHT22;18965;52.242;20.886;2023-09-12T06:43:49;22.80;76.80
32524;DHT22;18965;52.242;20.886;2023-09-12T06:46:15;22.90;76.30
32524;DHT22;18965;52.242;20.886;2023-09-12T06:48:44;23.10;75.90
32524;DHT22;18965;52.242;20.886;2023-09-12T06:51:11;23.20;75.50
32524;DHT22;18965;52.242;20.886;2023-09-12T06:53:37;23.40;75.10
32524;DHT22;18965;52.242;20.886;2023-09-12T06:56:04;23.50;75.00
32524;DHT22;18965;52.242;20.886;2023-09-12T06:58:30;23.70;74.70
32524;DHT22;18965;52.242;20.886;2023-09-12T07:00:55;23.80;74.00
32524;DHT22;18965;52.242;20.886;2023-09-12T07:03:21;23.90;73.50
32524;DHT22;18965;52.242;20.886;2023-09-12T07:05:48;23.90;72.30
32524;DHT22;18965;52.242;20.886;2023-09-12T07:08:14;24.00;71.60
32524;DHT22;18965;52.242;20.886;2023-09-12T07:10:49;24.10;71.30
32524;DHT22;18965;52.242;20.886;2023-09-12T07:13:14;24.20;70.70
32524;DHT22;18965;52.242;20.886;2023-09-12T07:15:40;24.20;70.20
32524;DHT22;18965;52.242;20.886;2023-09-12T07:18:06;24.30;70.20
32524;DHT22;18965;52.242;20.886;2023-09-12T07:20:35;24.30;70.10
32524;DHT22;18965;52.242;20.886;2023-09-12T07:23:01;24.40;69.90
32524;DHT22;18965;52.242;20.886;2023-09-12T07:25:26;24.50;70.20
32524;DHT22;18965;52.242;20.886;2023-09-12T07:27:52;24.50;69.10
32524;DHT22;18965;52.242;20.886;2023-09-12T07:30:19;24.60;68.80
32524;DHT22;18965;52.242;20.886;2023-09-12T07:32:44;24.60;68.40
32524;DHT22;18965;52.242;20.886;2023-09-12T07:35:10;24.70;68.10
32524;DHT22;18965;52.242;20.886;2023-09-12T07:37:36;24.80;68.00
32524;DHT22;18965;52.242;20.886;2023-09-12T07:40:02;24.80;67.70
32524;DHT22;18965;52.242;20.886;2023-09-12T07:42:35;24.90;67.60
32524;DHT22;18965;52.242;20.886;2023-09-12T07:45:02;24.90;67.10
32524;DHT22;18965;52.242;20.886;2023-09-12T07:47:28;25.00;67.20
32524;DHT22;18965;52.242;20.886;2023-09-12T07:49:54;25.10;67.30
32524;DHT22;18965;52.242;20.886;2023-09-12T07:52:21;25.10;67.00
32524;DHT22;18965;52.242;20.886;2023-09-12T07:54:48;25.20;66.80
32524;DHT22;18965;52.242;20.886;2023-09-12T07:57:14;25.30;66.90
32524;DHT22;18965;52.242;20.886;2023-09-12T07:59:40;25.30;66.70
32524;DHT22;18965;52.242;20.886;2023-09-12T08:02:06;25.40;66.60
32524;DHT22;18965;52.242;20.886;2023-09-12T08:04:31;25.50;66.20
32524;DHT22;18965;52.242;20.886;2023-09-12T08:06:57;25.50;66.00
32524;DHT22;18965;52.242;20.886;2023-09-12T08:09:23;25.60;65.10
32524;DHT22;18965;52.242;20.886;2023-09-12T08:11:48;25.60;65.10
32524;DHT22;18965;52.242;20.886;2023-09-12T08:14:14;25.70;65.20
32524;DHT22;18965;52.242;20.886;2023-09-12T08:16:40;25.70;65.10
32524;DHT22;18965;52.242;20.886;2023-09-12T08:19:05;25.80;65.00
32524;DHT22;18965;52.242;20.886;2023-09-12T08:21:31;25.80;64.80
32524;DHT22;18965;52.242;20.886;2023-09-12T08:23:56;25.90;64.30
32524;DHT22;18965;52.242;20.886;2023-09-12T08:26:22;25.90;64.60
32524;DHT22;18965;52.242;20.886;2023-09-12T08:28:48;26.00;64.50
32524;DHT22;18965;52.242;20.886;2023-09-12T08:31:14;26.00;64.30
32524;DHT22;18965;52.242;20.886;2023-09-12T08:33:39;26.10;64.20
32524;DHT22;18965;52.242;20.886;2023-09-12T08:36:05;26.10;63.70
32524;DHT22;18965;52.242;20.886;2023-09-12T08:38:30;26.20;63.50
32524;DHT22;18965;52.242;20.886;2023-09-12T08:40:56;26.20;63.10
32524;DHT22;18965;52.242;20.886;2023-09-12T08:43:22;26.30;63.20
32524;DHT22;18965;52.242;20.886;2023-09-12T08:45:48;26.30;63.00
32524;DHT22;18965;52.242;20.886;2023-09-12T08:48:15;26.30;62.90
32524;DHT22;18965;52.242;20.886;2023-09-12T08:50:41;26.40;62.70
32524;DHT22;18965;52.242;20.886;2023-09-12T08:53:07;26.40;62.70
32524;DHT22;18965;52.242;20.886;2023-09-12T08:55:33;26.40;62.60
32524;DHT22;18965;52.242;20.886;2023-09-12T08:58:02;26.50;62.00
32524;DHT22;18965;52.242;20.886;2023-09-12T09:00:29;26.50;61.70
32524;DHT22;18965;52.242;20.886;2023-09-12T09:02:55;26.60;61.80
32524;DHT22;18965;52.242;20.886;2023-09-12T09:05:22;26.60;61.30
32524;DHT22;18965;52.242;20.886;2023-09-12T09:07:49;26.70;61.30
32524;DHT22;18965;52.242;20.886;2023-09-12T09:10:16;26.70;60.80
32524;DHT22;18965;52.242;20.886;2023-09-12T09:12:44;26.80;60.70
32524;DHT22;18965;52.242;20.886;2023-09-12T09:15:28;26.80;60.90
32524;DHT22;18965;52.242;20.886;2023-09-12T09:17:56;26.90;61.00
32524;DHT22;18965;52.242;20.886;2023-09-12T09:23:05;26.90;60.70
32524;DHT22;18965;52.242;20.886;2023-09-12T09:25:33;27.00;60.00
32524;DHT22;18965;52.242;20.886;2023-09-12T09:28:02;27.00;59.40
32524;DHT22;18965;52.242;20.886;2023-09-12T09:30:42;27.00;59.20
32524;DHT22;18965;52.242;20.886;2023-09-12T09:33:09;27.10;58.80
32524;DHT22;18965;52.242;20.886;2023-09-12T09:35:35;27.10;58.70
32524;DHT22;18965;52.242;20.886;2023-09-12T09:38:03;27.20;59.10
32524;DHT22;18965;52.242;20.886;2023-09-12T09:40:31;27.20;58.70
32524;DHT22;18965;52.242;20.886;2023-09-12T09:43:01;27.20;58.90
32524;DHT22;18965;52.242;20.886;2023-09-12T09:45:29;27.20;58.60
32524;DHT22;18965;52.242;20.886;2023-09-12T09:48:05;27.30;58.90
32524;DHT22;18965;52.242;20.886;2023-09-12T09:50:37;27.30;58.00
32524;DHT22;18965;52.242;20.886;2023-09-12T09:53:03;27.30;58.40
32524;DHT22;18965;52.242;20.886;2023-09-12T09:55:31;27.40;58.50
32524;DHT22;18965;52.242;20.886;2023-09-12T09:57:57;27.40;58.10
32524;DHT22;18965;52.242;20.886;2023-09-12T10:00:23;27.50;57.20
32524;DHT22;18965;52.242;20.886;2023-09-12T10:02:51;27.50;57.00
32524;DHT22;18965;52.242;20.886;2023-09-12T10:05:18;27.50;56.40
32524;DHT22;18965;52.242;20.886;2023-09-12T10:07:48;27.60;56.40
32524;DHT22;18965;52.242;20.886;2023-09-12T10:10:16;27.60;56.10
32524;DHT22;18965;52.242;20.886;2023-09-12T10:12:48;27.70;56.10
32524;DHT22;18965;52.242;20.886;2023-09-12T10:15:15;27.70;55.40
32524;DHT22;18965;52.242;20.886;2023-09-12T10:17:43;27.70;54.90
32524;DHT22;18965;52.242;20.886;2023-09-12T10:20:23;27.80;55.40
32524;DHT22;18965;52.242;20.886;2023-09-12T10:23:00;27.90;55.40
32524;DHT22;18965;52.242;20.886;2023-09-12T10:25:29;28.00;54.90
32524;DHT22;18965;52.242;20.886;2023-09-12T10:27:55;28.00;54.60
32524;DHT22;18965;52.242;20.886;2023-09-12T10:30:22;28.10;54.40
32524;DHT22;18965;52.242;20.886;2023-09-12T10:32:49;28.10;53.80
32524;DHT22;18965;52.242;20.886;2023-09-12T10:35:15;28.20;53.60
32524;DHT22;18965;52.242;20.886;2023-09-12T10:37:43;28.20;53.70
32524;DHT22;18965;52.242;20.886;2023-09-12T10:40:11;28.30;53.50
32524;DHT22;18965;52.242;20.886;2023-09-12T10:42:39;28.30;52.50
32524;DHT22;18965;52.242;20.886;2023-09-12T10:45:06;28.40;52.90
32524;DHT22;18965;52.242;20.886;2023-09-12T10:47:38;28.50;53.10
32524;DHT22;18965;52.242;20.886;2023-09-12T10:50:05;28.50;52.40
32524;DHT22;18965;52.242;20.886;2023-09-12T10:52:31;28.60;51.70
32524;DHT22;18965;52.242;20.886;2023-09-12T10:54:59;28.70;51.40
32524;DHT22;18965;52.242;20.886;2023-09-12T10:57:25;28.70;50.60
32524;DHT22;18965;52.242;20.886;2023-09-12T11:02:35;28.70;50.30
32524;DHT22;18965;52.242;20.886;2023-09-12T11:07:49;28.80;50.90
32524;DHT22;18965;52.242;20.886;2023-09-12T11:12:42;28.80;50.50
32524;DHT22;18965;52.242;20.886;2023-09-12T11:15:09;28.80;50.60
32524;DHT22;18965;52.242;20.886;2023-09-12T11:17:39;28.90;50.30
32524;DHT22;18965;52.242;20.886;2023-09-12T11:20:06;29.00;50.80
32524;DHT22;18965;52.242;20.886;2023-09-12T11:22:47;29.00;50.10
32524;DHT22;18965;52.242;20.886;2023-09-12T11:25:25;29.00;49.20
32524;DHT22;18965;52.242;20.886;2023-09-12T11:30:18;29.00;49.30
32524;DHT22;18965;52.242;20.886;2023-09-12T11:32:47;29.00;49.70
32524;DHT22;18965;52.242;20.886;2023-09-12T11:35:14;29.10;49.80
32524;DHT22;18965;52.242;20.886;2023-09-12T11:37:52;29.10;49.40
32524;DHT22;18965;52.242;20.886;2023-09-12T11:40:23;29.10;49.00
32524;DHT22;18965;52.242;20.886;2023-09-12T11:42:50;29.10;48.60
32524;DHT22;18965;52.242;20.886;2023-09-12T11:45:18;29.20;49.10
32524;DHT22;18965;52.242;20.886;2023-09-12T11:47:46;29.20;48.80
32524;DHT22;18965;52.242;20.886;2023-09-12T11:50:34;29.20;49.30
32524;DHT22;18965;52.242;20.886;2023-09-12T11:53:06;29.20;48.60
32524;DHT22;18965;52.242;20.886;2023-09-12T11:55:34;29.20;49.10
32524;DHT22;18965;52.242;20.886;2023-09-12T11:58:00;29.20;49.20
32524;DHT22;18965;52.242;20.886;2023-09-12T12:00:27;29.10;48.90
32524;DHT22;18965;52.242;20.886;2023-09-12T12:02:57;29.10;49.00
32524;DHT22;18965;52.242;20.886;2023-09-12T12:05:23;29.00;49.10
32524;DHT22;18965;52.242;20.886;2023-09-12T12:07:49;28.90;49.70
32524;DHT22;18965;52.242;20.886;2023-09-12T12:10:17;28.90;49.90
32524;DHT22;18965;52.242;20.886;2023-09-12T12:12:46;28.80;50.10
32524;DHT22;18965;52.242;20.886;2023-09-12T12:15:13;28.70;50.00
32524;DHT22;18965;52.242;20.886;2023-09-12T12:17:41;28.70;50.10
32524;DHT22;18965;52.242;20.886;2023-09-12T12:20:09;28.60;50.20
32524;DHT22;18965;52.242;20.886;2023-09-12T12:22:37;28.60;50.40
32524;DHT22;18965;52.242;20.886;2023-09-12T12:25:08;28.60;49.90
32524;DHT22;18965;52.242;20.886;2023-09-12T12:27:41;28.60;49.30
32524;DHT22;18965;52.242;20.886;2023-09-12T12:30:09;28.70;49.10
32524;DHT22;18965;52.242;20.886;2023-09-12T12:32:39;28.70;49.00
32524;DHT22;18965;52.242;20.886;2023-09-12T12:35:05;28.80;49.00
32524;DHT22;18965;52.242;20.886;2023-09-12T12:37:32;28.80;48.90
32524;DHT22;18965;52.242;20.886;2023-09-12T12:39:59;28.80;49.00
32524;DHT22;18965;52.242;20.886;2023-09-12T12:42:44;28.80;49.00
32524;DHT22;18965;52.242;20.886;2023-09-12T12:45:18;28.80;48.90
32524;DHT22;18965;52.242;20.886;2023-09-12T12:47:44;28.80;48.60
32524;DHT22;18965;52.242;20.886;2023-09-12T12:50:11;28.80;48.70
32524;DHT22;18965;52.242;20.886;2023-09-12T12:52:38;28.90;48.40
32524;DHT22;18965;52.242;20.886;2023-09-12T12:55:10;28.90;48.70
32524;DHT22;18965;52.242;20.886;2023-09-12T12:57:40;29.00;49.00
32524;DHT22;18965;52.242;20.886;2023-09-12T13:00:11;29.00;48.50
32524;DHT22;18965;52.242;20.886;2023-09-12T13:02:38;29.00;48.60
32524;DHT22;18965;52.242;20.886;2023-09-12T13:05:18;29.00;48.20
32524;DHT22;18965;52.242;20.886;2023-09-12T13:07:44;29.10;48.30
32524;DHT22;18965;52.242;20.886;2023-09-12T13:10:10;29.10;48.60
32524;DHT22;18965;52.242;20.886;2023-09-12T13:12:36;29.10;48.70
32524;DHT22;18965;52.242;20.886;2023-09-12T13:15:06;29.10;49.10
32524;DHT22;18965;52.242;20.886;2023-09-12T13:17:32;29.10;49.40
32524;DHT22;18965;52.242;20.886;2023-09-12T13:19:58;29.10;49.60
32524;DHT22;18965;52.242;20.886;2023-09-12T13:22:23;29.10;49.40
32524;DHT22;18965;52.242;20.886;2023-09-12T13:24:49;29.10;49.10
32524;DHT22;18965;52.242;20.886;2023-09-12T13:27:15;29.10;49.10
32524;DHT22;18965;52.242;20.886;2023-09-12T13:29:40;29.10;48.70
32524;DHT22;18965;52.242;20.886;2023-09-12T13:32:06;29.10;48.60
32524;DHT22;18965;52.242;20.886;2023-09-12T13:34:32;29.00;48.50
32524;DHT22;18965;52.242;20.886;2023-09-12T13:36:57;29.00;49.00
32524;DHT22;18965;52.242;20.886;2023-09-12T13:39:24;28.90;49.10
32524;DHT22;18965;52.242;20.886;2023-09-12T13:41:50;28.90;48.50
32524;DHT22;18965;52.242;20.886;2023-09-12T13:44:17;28.80;48.00
32524;DHT22;18965;52.242;20.886;2023-09-12T13:46:43;28.80;47.50
32524;DHT22;18965;52.242;20.886;2023-09-12T13:49:12;28.80;47.40
32524;DHT22;18965;52.242;20.886;2023-09-12T13:51:38;28.80;48.00
32524;DHT22;18965;52.242;20.886;2023-09-12T13:54:04;28.80;48.00
32524;DHT22;18965;52.242;20.886;2023-09-12T13:56:32;28.80;48.00
32524;DHT22;18965;52.242;20.886;2023-09-12T13:58:57;28.80;47.90
32524;DHT22;18965;52.242;20.886;2023-09-12T14:01:23;28.90;47.30
32524;DHT22;18965;52.242;20.886;2023-09-12T14:03:49;28.90;47.20
32524;DHT22;18965;52.242;20.886;2023-09-12T14:06:14;28.90;46.90
32524;DHT22;18965;52.242;20.886;2023-09-12T14:08:40;28.90;46.90
32524;DHT22;18965;52.242;20.886;2023-09-12T14:11:06;29.00;47.10
32524;DHT22;18965;52.242;20.886;2023-09-12T14:13:31;29.00;47.10
32524;DHT22;18965;52.242;20.886;2023-09-12T14:15:57;28.90;47.10
32524;DHT22;18965;52.242;20.886;2023-09-12T14:18:25;28.90;47.60
32524;DHT22;18965;52.242;20.886;2023-09-12T14:20:50;28.90;47.30
32524;DHT22;18965;52.242;20.886;2023-09-12T14:23:17;28.90;47.70
32524;DHT22;18965;52.242;20.886;2023-09-12T14:25:42;28.80;48.10
32524;DHT22;18965;52.242;20.886;2023-09-12T14:28:08;28.80;48.40
32524;DHT22;18965;52.242;20.886;2023-09-12T14:30:34;28.80;49.00
32524;DHT22;18965;52.242;20.886;2023-09-12T14:33:02;28.70;49.30
32524;DHT22;18965;52.242;20.886;2023-09-12T14:35:28;28.70;49.10
32524;DHT22;18965;52.242;20.886;2023-09-12T14:37:54;28.70;48.50
32524;DHT22;18965;52.242;20.886;2023-09-12T14:40:20;28.70;48.60
32524;DHT22;18965;52.242;20.886;2023-09-12T14:42:45;28.70;48.50
32524;DHT22;18965;52.242;20.886;2023-09-12T14:45:13;28.70;49.30
32524;DHT22;18965;52.242;20.886;2023-09-12T14:47:39;28.70;48.40
32524;DHT22;18965;52.242;20.886;2023-09-12T14:50:05;28.70;48.00
32524;DHT22;18965;52.242;20.886;2023-09-12T14:52:31;28.70;48.00
32524;DHT22;18965;52.242;20.886;2023-09-12T14:54:57;28.70;48.10
32524;DHT22;18965;52.242;20.886;2023-09-12T14:57:26;28.70;48.20
32524;DHT22;18965;52.242;20.886;2023-09-12T14:59:52;28.70;48.10
32524;DHT22;18965;52.242;20.886;2023-09-12T15:02:18;28.70;47.90
32524;DHT22;18965;52.242;20.886;2023-09-12T15:04:44;28.70;47.90
32524;DHT22;18965;52.242;20.886;2023-09-12T15:07:09;28.80;47.60
32524;DHT22;18965;52.242;20.886;2023-09-12T15:09:35;28.80;47.50
32524;DHT22;18965;52.242;20.886;2023-09-12T15:12:01;28.80;47.30
32524;DHT22;18965;52.242;20.886;2023-09-12T15:14:26;28.90;47.20
32524;DHT22;18965;52.242;20.886;2023-09-12T15:16:52;28.90;46.90
32524;DHT22;18965;52.242;20.886;2023-09-12T15:19:18;29.00;47.10
32524;DHT22;18965;52.242;20.886;2023-09-12T15:21:44;29.00;47.10
32524;DHT22;18965;52.242;20.886;2023-09-12T15:24:09;29.00;47.00
32524;DHT22;18965;52.242;20.886;2023-09-12T15:26:35;29.00;47.00
32524;DHT22;18965;52.242;20.886;2023-09-12T15:29:01;29.00;47.30
32524;DHT22;18965;52.242;20.886;2023-09-12T15:31:27;29.10;48.20